Time;durP1;ratioP1;P1;durP2;ratioP2;P2;SDS_P1;SDS_P2;PMS_P1;PMS_P2;Temp;Humidity;BMP_temperature;BMP_pressure;BME280_temperature;BME280_humidity;BME280_pressure;Samples;Min_cycle;Max_cycle;Signal;HPM_P1;HPM_P2
2021/03/28 00:01:53;;;;;;;8.55;3.65;;;;;;;9.38;29.22;102357.00;5047196;28;20474;-76
2021/03/28 00:04:25;;;;;;;6.38;2.60;;;;;;;9.37;28.84;102351.66;5102308;28;20092;-77
2021/03/28 00:07:03;;;;;;;3.88;2.20;;;;;;;9.37;29.08;102348.94;5113719;28;20401;-77
2021/03/28 00:09:46;;;;;;;5.97;2.33;;;;;;;9.36;29.36;102353.50;5113206;28;20351;-77
2021/03/28 00:12:29;;;;;;;6.72;2.38;;;;;;;9.35;29.43;102361.78;5114129;28;20174;-77
2021/03/28 00:15:04;;;;;;;7.05;2.20;;;;;;;9.32;29.26;102360.09;5095442;28;20463;-77
2021/03/28 00:17:37;;;;;;;4.30;2.03;;;;;;;9.33;29.43;102359.13;5104556;28;20036;-77
2021/03/28 00:20:27;;;;;;;8.23;2.60;;;;;;;9.33;29.47;102358.25;5095989;28;20044;-77
2021/03/28 00:23:09;;;;;;;5.93;2.10;;;;;;;9.33;29.64;102358.25;5095383;28;20042;-77
2021/03/28 00:25:42;;;;;;;4.82;2.10;;;;;;;9.32;29.36;102360.09;5107872;28;20044;-77
2021/03/28 00:28:22;;;;;;;5.53;2.20;;;;;;;9.31;29.25;102354.72;5112317;28;20097;-78
2021/03/28 00:30:50;;;;;;;5.57;2.25;;;;;;;9.31;29.34;102351.97;5101583;28;20126;-77
2021/03/28 00:33:25;;;;;;;6.03;2.28;;;;;;;9.31;29.73;102350.13;5105352;28;20455;-77
2021/03/28 00:35:55;;;;;;;4.45;1.90;;;;;;;9.31;29.80;102338.34;5112016;28;20052;-78
2021/03/28 00:38:28;;;;;;;7.32;2.65;;;;;;;9.30;29.74;102348.38;5095926;28;20096;-77
2021/03/28 00:41:09;;;;;;;5.50;1.90;;;;;;;9.30;30.08;102348.38;5113025;28;20042;-76
2021/03/28 00:43:49;;;;;;;6.53;2.08;;;;;;;9.31;30.11;102349.25;5103548;28;20048;-77
2021/03/28 00:46:35;;;;;;;4.40;1.85;;;;;;;9.30;30.06;102342.91;5112908;28;20050;-77
2021/03/28 00:49:23;;;;;;;5.00;2.10;;;;;;;9.29;30.20;102343.91;5112558;28;20062;-77
2021/03/28 00:51:54;;;;;;;7.38;2.65;;;;;;;9.29;29.82;102348.50;5092447;28;20043;-77
2021/03/28 00:54:36;;;;;;;6.13;2.15;;;;;;;9.30;30.17;102332.00;5092934;28;20067;-77
2021/03/28 00:57:19;;;;;;;5.60;1.75;;;;;;;9.30;30.19;102334.72;5058542;28;20059;-77
2021/03/28 00:59:55;;;;;;;6.68;2.13;;;;;;;9.30;30.24;102339.34;5124585;28;20066;-77
2021/03/28 01:02:53;;;;;;;5.38;1.80;;;;;;;9.28;30.22;102336.69;5103506;28;20055;-77
2021/03/28 01:05:32;;;;;;;4.88;1.90;;;;;;;9.29;30.47;102330.25;5075208;28;20487;-77
2021/03/28 01:08:08;;;;;;;6.95;1.88;;;;;;;9.29;30.39;102341.19;5090631;28;20078;-78
2021/03/28 01:11:10;;;;;;;5.75;1.85;;;;;;;9.29;30.51;102327.53;5094664;28;20050;-77
2021/03/28 01:14:06;;;;;;;7.53;2.50;;;;;;;9.25;30.53;102323.19;5077211;28;20063;-77
2021/03/28 01:17:00;;;;;;;4.30;1.70;;;;;;;9.28;30.69;102328.50;5102746;28;20036;-78
2021/03/28 01:20:08;;;;;;;6.30;2.00;;;;;;;9.23;30.94;102318.78;5101664;28;20468;-77
2021/03/28 01:22:45;;;;;;;4.95;1.90;;;;;;;9.23;30.87;102316.94;5092896;28;20035;-77
2021/03/28 01:25:45;;;;;;;4.85;1.90;;;;;;;9.26;30.86;102314.03;5087831;28;20062;-76
2021/03/28 01:28:26;;;;;;;4.97;2.10;;;;;;;9.27;30.83;102320.38;5086067;28;20036;-77
2021/03/28 01:31:16;;;;;;;5.43;1.85;;;;;;;9.24;30.84;102313.25;5077406;28;20052;-78
2021/03/28 01:33:49;;;;;;;4.45;1.80;;;;;;;9.25;30.54;102306.81;5106985;28;20475;-77
2021/03/28 01:36:23;;;;;;;4.25;1.63;;;;;;;9.25;30.84;102314.13;5097535;28;20094;-77
2021/03/28 01:39:01;;;;;;;4.78;1.88;;;;;;;9.27;30.91;102304.00;5104124;28;20047;-77
2021/03/28 01:41:33;;;;;;;5.63;2.20;;;;;;;9.24;30.76;102302.31;5113178;28;20046;-77
2021/03/28 01:44:10;;;;;;;3.95;1.45;;;;;;;9.25;31.08;102303.19;5115944;28;20069;-77
2021/03/28 01:46:50;;;;;;;3.95;1.60;;;;;;;9.26;30.95;102299.50;5098269;28;20545;-78
2021/03/28 01:49:36;;;;;;;5.60;1.75;;;;;;;9.27;31.08;102301.25;5097111;28;20032;-77
2021/03/28 01:52:12;;;;;;;5.13;1.63;;;;;;;9.25;30.90;102300.47;5105188;28;20043;-76
2021/03/28 01:54:55;;;;;;;5.88;1.88;;;;;;;9.27;31.11;102296.69;5107717;28;20039;-77
2021/03/28 01:57:31;;;;;;;3.95;1.50;;;;;;;9.27;30.99;102291.22;5102701;28;20413;-76
2021/03/28 02:00:30;;;;;;;3.85;1.95;;;;;;;9.26;31.35;102297.66;5095357;28;20126;-76
2021/03/28 02:03:04;;;;;;;4.50;1.50;;;;;;;9.26;31.29;102297.66;5106499;28;20487;-76
2021/03/28 02:05:53;;;;;;;5.60;1.70;;;;;;;9.28;31.19;102290.25;5099579;28;20089;-77
2021/03/28 02:08:28;;;;;;;5.63;1.65;;;;;;;9.28;31.38;102298.44;5097701;28;20098;-76
2021/03/28 02:11:06;;;;;;;3.00;1.30;;;;;;;9.30;31.50;102296.50;5115209;28;20043;-77
2021/03/28 02:13:51;;;;;;;5.07;1.58;;;;;;;9.31;31.40;102300.09;5084414;28;20132;-77
2021/03/28 02:16:23;;;;;;;4.20;1.88;;;;;;;9.31;31.38;102294.63;5113351;28;20150;-76
2021/03/28 02:19:08;;;;;;;4.75;1.50;;;;;;;9.30;31.22;102292.91;5103299;28;20050;-76
2021/03/28 02:22:13;;;;;;;4.88;1.85;;;;;;;9.29;31.55;102288.41;5113299;28;20134;-76
2021/03/28 02:24:51;;;;;;;5.57;1.35;;;;;;;9.34;31.50;102286.28;5083842;28;20048;-77
2021/03/28 02:27:25;;;;;;;4.53;1.50;;;;;;;9.34;31.32;102284.44;5111679;28;20047;-76
2021/03/28 02:30:07;;;;;;;4.78;1.60;;;;;;;9.36;31.52;102287.97;5113405;28;20035;-76
2021/03/28 02:32:58;;;;;;;4.90;1.88;;;;;;;9.35;31.54;102282.59;5109730;28;20051;-77
2021/03/28 02:35:48;;;;;;;3.78;1.40;;;;;;;9.34;31.57;102286.28;5107331;28;20036;-77
2021/03/28 02:38:23;;;;;;;3.13;1.30;;;;;;;9.37;31.57;102294.31;5095452;28;20043;-77
2021/03/28 02:41:01;;;;;;;4.20;1.52;;;;;;;9.36;31.58;102290.69;5113987;28;20045;-77
2021/03/28 02:43:38;;;;;;;4.15;1.55;;;;;;;9.37;31.60;102294.31;5086301;28;20489;-77
2021/03/28 02:46:13;;;;;;;5.07;1.50;;;;;;;9.38;31.42;102290.59;5077586;28;20128;-77
2021/03/28 02:48:59;;;;;;;3.38;1.38;;;;;;;9.39;31.71;102298.69;5101934;28;20097;-77
2021/03/28 02:51:37;;;;;;;4.10;1.60;;;;;;;9.38;32.06;102293.34;5110504;28;20027;-77
2021/03/28 02:54:31;;;;;;;4.43;1.45;;;;;;;9.38;31.72;102296.06;5101214;28;20115;-78
2021/03/28 02:57:15;;;;;;;4.50;1.38;;;;;;;9.39;31.80;102292.34;5094862;28;20071;-77
2021/03/28 03:00:06;;;;;;;5.32;1.40;;;;;;;9.38;31.74;102291.47;5116987;27;20047;-77
2021/03/28 03:02:57;;;;;;;4.55;1.40;;;;;;;9.37;31.64;102297.03;5105969;27;20052;-77
2021/03/28 03:05:46;;;;;;;3.60;1.10;;;;;;;9.36;31.68;102303.47;5100766;28;20513;-77
2021/03/28 03:08:19;;;;;;;2.60;1.08;;;;;;;9.36;31.51;102298.00;5109463;28;20039;-77
2021/03/28 03:11:18;;;;;;;3.85;1.40;;;;;;;9.35;31.81;102299.84;5112990;28;20089;-77
2021/03/28 03:14:08;;;;;;;4.28;1.25;;;;;;;9.37;31.77;102294.31;5105103;28;20039;-76
2021/03/28 03:17:02;;;;;;;2.95;1.20;;;;;;;9.36;31.79;102295.28;5113789;28;20122;-76
2021/03/28 03:20:04;;;;;;;4.53;1.38;;;;;;;9.32;31.81;102300.03;5108184;27;20036;-76
2021/03/28 03:23:18;;;;;;;4.15;1.35;;;;;;;9.29;31.83;102285.69;5087288;28;20052;-76
2021/03/28 03:26:08;;;;;;;3.10;1.20;;;;;;;9.28;31.87;102286.66;5033502;28;20113;-76
2021/03/28 03:29:02;;;;;;;2.90;1.10;;;;;;;9.31;31.89;102289.19;5091429;28;20043;-76
2021/03/28 03:32:09;;;;;;;3.42;1.35;;;;;;;9.27;31.96;102288.50;5112649;28;20059;-77
2021/03/28 03:35:15;;;;;;;3.65;1.30;;;;;;;9.28;31.94;102289.38;5088523;28;20043;-78
2021/03/28 03:38:05;;;;;;;3.05;1.30;;;;;;;9.26;32.05;102292.19;5086961;28;20055;-78
2021/03/28 03:41:14;;;;;;;4.70;1.30;;;;;;;9.26;32.23;102292.19;5092233;28;20501;-77
2021/03/28 03:44:15;;;;;;;4.40;1.50;;;;;;;9.24;32.12;102288.66;5088750;28;20061;-77
2021/03/28 03:47:16;;;;;;;3.45;1.40;;;;;;;9.22;32.19;102279.66;5109576;28;20093;-77
2021/03/28 03:50:02;;;;;;;4.38;1.75;;;;;;;9.22;32.28;102281.53;5109096;28;20499;-77
2021/03/28 03:52:49;;;;;;;4.47;1.63;;;;;;;9.22;32.38;102284.25;5107386;28;20118;-77
2021/03/28 03:55:23;;;;;;;4.57;1.65;;;;;;;9.21;31.99;102286.13;5102223;28;20530;-77
2021/03/28 03:57:55;;;;;;;4.90;1.70;;;;;;;9.20;32.11;102276.19;5107821;28;20035;-77
2021/03/28 04:00:27;;;;;;;4.55;1.80;;;;;;;9.19;32.35;102284.44;5109278;28;20044;-77
2021/03/28 04:03:08;;;;;;;6.70;1.98;;;;;;;9.20;32.45;102286.22;5101014;28;20043;-77
2021/03/28 04:05:59;;;;;;;3.65;1.60;;;;;;;9.20;32.38;102289.81;5089115;28;20047;-77
2021/03/28 04:08:59;;;;;;;4.43;1.40;;;;;;;9.19;32.53;102279.88;5085014;28;20065;-78
2021/03/28 04:11:49;;;;;;;6.07;1.77;;;;;;;9.19;32.41;102281.72;5080387;28;20138;-77
2021/03/28 04:14:35;;;;;;;4.13;1.58;;;;;;;9.18;32.45;102283.56;5086378;28;20039;-76
2021/03/28 04:17:19;;;;;;;5.47;1.80;;;;;;;9.18;32.49;102291.75;5095364;28;20056;-76
2021/03/28 04:20:06;;;;;;;4.72;1.70;;;;;;;9.18;32.50;102289.03;5108711;28;20069;-76
2021/03/28 04:23:17;;;;;;;3.65;1.70;;;;;;;9.11;32.53;102300.38;5111201;28;20098;-77
2021/03/28 04:26:00;;;;;;;2.92;1.35;;;;;;;9.15;32.56;102291.03;5111030;28;20047;-77
2021/03/28 04:28:53;;;;;;;4.18;1.38;;;;;;;9.14;32.44;102300.19;5095162;28;20035;-76
2021/03/28 04:31:51;;;;;;;4.90;1.60;;;;;;;9.11;32.54;102292.19;5097769;28;20055;-76
2021/03/28 04:34:21;;;;;;;4.65;1.70;;;;;;;9.11;32.26;102289.47;5108192;28;20039;-77
2021/03/28 04:37:17;;;;;;;3.30;1.38;;;;;;;9.14;32.62;102298.34;5094859;28;20071;-76
2021/03/28 04:40:00;;;;;;;3.40;1.40;;;;;;;9.12;32.64;102305.78;5111936;28;20036;-76
2021/03/28 04:42:40;;;;;;;;;;;;;;;8.84;32.81;102300.97;5113488;28;20475;-76
2021/03/28 04:45:32;;;;;;;3.65;1.30;;;;;;;9.09;32.64;102302.31;5111389;28;20382;-76
2021/03/28 04:48:48;;;;;;;3.53;1.33;;;;;;;9.06;32.64;102307.94;5106028;28;20056;-77
2021/03/28 04:51:42;;;;;;;2.53;1.25;;;;;;;9.09;32.73;102303.19;5090377;28;20063;-76
2021/03/28 04:54:45;;;;;;;5.30;1.30;;;;;;;9.08;32.71;102297.81;5109514;28;20138;-77
2021/03/28 04:57:29;;;;;;;3.50;1.27;;;;;;;9.10;32.58;102298.63;5112899;28;20051;-77
2021/03/28 05:00:19;;;;;;;4.22;1.35;;;;;;;9.09;32.74;102297.75;5118275;28;20125;-76
2021/03/28 05:03:29;;;;;;;6.47;1.60;;;;;;;9.04;32.73;102305.31;5100936;28;20093;-76
2021/03/28 05:09:53;;;;;;;3.53;1.45;;;;;;;9.08;32.91;102311.47;5082268;28;20078;-77
2021/03/28 05:12:47;;;;;;;3.90;1.15;;;;;;;9.08;32.73;102315.09;5086993;28;20035;-77
2021/03/28 05:15:53;;;;;;;3.45;1.10;;;;;;;9.09;32.86;102314.13;5080733;28;20031;-76
2021/03/28 05:19:10;;;;;;;3.20;1.13;;;;;;;9.03;32.88;102303.56;5123757;27;20061;-77
2021/03/28 05:22:22;;;;;;;2.95;1.38;;;;;;;9.06;32.91;102299.75;5114396;28;20168;-76
2021/03/28 05:25:23;;;;;;;3.08;1.20;;;;;;;9.09;33.04;102308.66;5108185;28;20063;-77
2021/03/28 05:28:23;;;;;;;4.60;1.10;;;;;;;9.10;32.96;102315.88;5110862;28;20043;-77
2021/03/28 05:31:38;;;;;;;4.32;1.27;;;;;;;9.09;33.03;102322.31;5078329;28;20056;-76
2021/03/28 05:34:38;;;;;;;3.22;1.17;;;;;;;9.10;33.18;102315.88;5090567;28;20078;-76
2021/03/28 05:37:32;;;;;;;2.63;1.20;;;;;;;9.10;33.00;102310.44;5096586;28;20035;-76
2021/03/28 05:40:22;;;;;;;3.92;1.38;;;;;;;9.12;32.95;102307.63;5112005;28;20040;-77
2021/03/28 05:43:17;;;;;;;3.63;1.35;;;;;;;9.13;33.10;102301.19;5107265;28;20039;-76
2021/03/28 05:46:04;;;;;;;3.50;1.30;;;;;;;9.12;33.13;102291.25;5103606;28;20044;-76
2021/03/28 05:48:57;;;;;;;3.88;1.40;;;;;;;9.12;33.20;102296.69;5105840;28;20470;-77
2021/03/28 05:52:00;;;;;;;2.63;1.08;;;;;;;9.10;33.19;102299.50;5112955;28;20541;-76
2021/03/28 05:55:24;;;;;;;3.92;1.10;;;;;;;9.05;33.16;102301.63;5102543;28;20127;-76
2021/03/28 05:58:48;;;;;;;4.75;1.50;;;;;;;9.03;33.31;102284.44;5107123;28;20036;-76
2021/03/28 06:01:36;;;;;;;4.07;1.58;;;;;;;9.09;33.44;102292.28;5031097;28;20060;-77
2021/03/28 06:04:51;;;;;;;3.60;1.27;;;;;;;9.10;33.33;102290.44;5034499;28;20476;-76
2021/03/28 06:07:54;;;;;;;4.00;1.40;;;;;;;9.08;33.45;102295.97;5097142;28;20447;-76
2021/03/28 06:10:50;;;;;;;3.72;1.30;;;;;;;9.11;33.46;102304.00;5098770;28;20098;-77
2021/03/28 06:13:49;;;;;;;3.08;1.20;;;;;;;9.13;33.42;102303.91;5093374;28;20557;-76
2021/03/28 06:16:46;;;;;;;3.25;1.30;;;;;;;9.11;33.54;102308.59;5105094;27;20048;-76
2021/03/28 06:19:43;;;;;;;3.40;1.38;;;;;;;9.12;33.50;102302.16;5103150;28;20135;-76
2021/03/28 06:22:53;;;;;;;2.80;1.50;;;;;;;9.11;33.58;102305.84;5111578;28;20045;-77
2021/03/28 06:25:58;;;;;;;3.92;1.40;;;;;;;9.14;33.84;102303.81;5107765;27;20028;-76
2021/03/28 06:29:27;;;;;;;2.15;1.27;;;;;;;9.10;33.82;102310.44;5110698;28;20043;-76
2021/03/28 06:32:24;;;;;;;3.58;1.80;;;;;;;9.16;33.77;102306.44;5043889;28;20072;-76
2021/03/28 06:35:35;;;;;;;3.00;1.48;;;;;;;9.14;34.03;102308.38;5107836;28;20035;-77
2021/03/28 06:38:38;;;;;;;3.03;1.33;;;;;;;9.16;33.91;102312.81;5109078;28;20110;-78
2021/03/28 06:41:24;;;;;;;3.78;1.17;;;;;;;9.17;34.20;102306.38;5094415;28;20101;-77
2021/03/28 06:44:10;;;;;;;3.70;1.40;;;;;;;9.23;34.00;102307.84;5106222;27;20402;-77
2021/03/28 06:47:13;;;;;;;2.63;1.25;;;;;;;9.21;34.14;102304.38;5119731;27;20039;-76
2021/03/28 06:50:25;;;;;;;4.38;1.25;;;;;;;9.18;34.26;102302.69;5101742;28;20052;-77
2021/03/28 06:53:04;;;;;;;2.92;1.10;;;;;;;9.23;34.02;102300.56;5030350;27;20045;-77
2021/03/28 06:55:39;;;;;;;2.42;1.05;;;;;;;9.26;34.30;102299.50;5116378;27;20060;-77
2021/03/28 06:58:38;;;;;;;4.15;1.30;;;;;;;9.30;34.26;102298.38;5114565;28;20486;-76
2021/03/28 07:01:42;;;;;;;2.80;1.15;;;;;;;9.29;34.28;102299.34;5111522;28;20036;-76
2021/03/28 07:04:51;;;;;;;3.08;1.20;;;;;;;9.28;34.31;102298.44;5113189;28;20035;-77
2021/03/28 07:07:51;;;;;;;3.15;1.15;;;;;;;9.29;34.40;102292.03;5109524;28;20121;-76
2021/03/28 07:10:34;;;;;;;3.38;1.50;;;;;;;9.35;34.29;102304.44;5108392;28;20046;-77
2021/03/28 07:13:43;;;;;;;4.93;1.70;;;;;;;9.36;34.54;102300.72;5101781;28;20066;-76
2021/03/28 07:16:43;;;;;;;2.95;1.10;;;;;;;9.37;34.28;102306.13;5112334;28;20128;-76
2021/03/28 07:19:47;;;;;;;2.95;1.33;;;;;;;9.39;34.64;102306.88;5091374;28;20039;-76
2021/03/28 07:22:32;;;;;;;5.32;1.20;;;;;;;9.40;34.63;102305.91;5109247;27;20073;-76
2021/03/28 07:25:45;;;;;;;3.08;1.00;;;;;;;9.44;34.52;102309.34;5114030;28;20119;-77
2021/03/28 07:28:52;;;;;;;2.13;1.10;;;;;;;9.45;34.51;102304.78;5091797;28;20045;-77
2021/03/28 07:31:41;;;;;;;5.13;1.90;;;;;;;9.49;34.60;102309.06;5107822;28;20121;-76
2021/03/28 07:34:45;;;;;;;2.05;1.05;;;;;;;9.51;34.70;102309.88;5113646;28;20031;-75
2021/03/28 07:37:44;;;;;;;2.85;1.10;;;;;;;9.55;34.57;102309.59;5096637;28;20075;-77
2021/03/28 07:40:32;;;;;;;3.83;1.20;;;;;;;9.59;34.60;102322.13;5093797;28;20050;-77
2021/03/28 07:43:39;;;;;;;2.88;1.10;;;;;;;9.61;34.83;102322.03;5097634;28;20416;-75
2021/03/28 07:46:32;;;;;;;3.60;1.30;;;;;;;9.63;34.76;102320.94;5101289;28;20078;-76
2021/03/28 07:49:43;;;;;;;2.08;1.10;;;;;;;9.62;34.70;102313.75;5109006;28;20036;-77
2021/03/28 07:52:34;;;;;;;3.08;1.30;;;;;;;9.69;34.79;102315.16;5100367;28;20055;-76
2021/03/28 07:55:24;;;;;;;3.08;1.30;;;;;;;9.70;34.76;102313.31;5103210;28;20081;-75
2021/03/28 07:58:28;;;;;;;2.90;1.20;;;;;;;9.73;34.73;102324.94;5112195;28;20059;-76
2021/03/28 08:01:47;;;;;;;4.38;1.30;;;;;;;9.74;34.83;102334.88;5097125;28;20058;-76
2021/03/28 08:04:52;;;;;;;3.97;1.30;;;;;;;9.76;34.97;102327.50;5106987;27;20043;-76
2021/03/28 08:07:45;;;;;;;4.35;1.20;;;;;;;9.81;34.88;102326.31;5112056;28;20059;-76
2021/03/28 08:10:44;;;;;;;3.30;1.30;;;;;;;9.83;34.94;102332.59;5105193;28;20051;-76
2021/03/28 08:13:41;;;;;;;3.20;1.40;;;;;;;9.88;34.94;102324.97;5102723;28;20040;-76
2021/03/28 08:16:28;;;;;;;2.42;1.00;;;;;;;9.93;34.93;102331.06;5106388;28;20042;-76
2021/03/28 08:19:33;;;;;;;3.25;1.30;;;;;;;9.90;34.99;102336.69;5104235;28;20063;-76
2021/03/28 08:22:15;;;;;;;3.47;1.20;;;;;;;9.99;35.04;102338.88;5007073;28;20160;-76
2021/03/28 08:25:20;;;;;;;2.90;1.38;;;;;;;10.03;34.94;102338.63;5107934;28;20483;-76
2021/03/28 08:28:13;;;;;;;3.15;1.27;;;;;;;10.07;35.54;102321.03;5085661;28;20063;-75
2021/03/28 08:30:49;;;;;;;3.95;1.42;;;;;;;10.11;34.83;102325.38;5112615;28;20057;-76
2021/03/28 08:33:28;;;;;;;3.58;1.35;;;;;;;10.18;35.38;102323.13;5084840;28;20054;-76
2021/03/28 08:36:21;;;;;;;3.92;1.30;;;;;;;10.21;35.26;102333.84;5111859;28;20046;-76
2021/03/28 08:39:07;;;;;;;3.33;1.20;;;;;;;10.30;35.07;102332.41;5106558;28;20040;-76
2021/03/28 08:42:17;;;;;;;5.13;1.40;;;;;;;10.32;35.21;102322.25;5113059;28;20544;-76
2021/03/28 08:45:10;;;;;;;4.28;1.30;;;;;;;10.43;35.37;102323.38;5073698;28;20410;-76
2021/03/28 08:48:10;;;;;;;4.38;1.58;;;;;;;10.48;35.33;102320.34;5112649;28;20118;-76
2021/03/28 08:50:42;;;;;;;3.25;1.30;;;;;;;10.60;35.29;102322.31;5111172;28;20039;-75
2021/03/28 08:53:25;;;;;;;5.47;1.60;;;;;;;10.71;35.41;102325.22;5115702;28;20063;-75
2021/03/28 08:56:25;;;;;;;3.10;1.33;;;;;;;10.81;35.50;102331.00;5114712;28;20287;-75
2021/03/28 08:58:56;;;;;;;3.78;1.20;;;;;;;10.93;35.21;102322.03;5084555;28;20055;-76
2021/03/28 09:01:44;;;;;;;3.97;1.52;;;;;;;11.06;35.34;102319.38;5116767;28;20040;-76
2021/03/28 09:04:22;;;;;;;3.67;1.30;;;;;;;11.17;35.24;102316.81;5114559;28;20060;-76
2021/03/28 09:07:00;;;;;;;4.88;1.60;;;;;;;11.29;35.29;102322.34;5115314;28;20101;-76
2021/03/28 09:09:41;;;;;;;4.10;1.55;;;;;;;11.41;35.20;102323.41;5116019;28;20032;-76
2021/03/28 09:12:20;;;;;;;4.82;1.40;;;;;;;11.54;35.27;102323.44;5116223;28;20059;-76
2021/03/28 09:15:10;;;;;;;6.00;1.65;;;;;;;11.63;34.68;102326.44;5115050;27;20439;-77
2021/03/28 09:17:49;;;;;;;4.88;1.60;;;;;;;11.76;34.68;102333.84;5115201;28;20047;-76
2021/03/28 09:20:31;;;;;;;3.42;1.45;;;;;;;11.87;34.57;102326.63;5112565;28;20059;-76
2021/03/28 09:23:16;;;;;;;4.78;1.52;;;;;;;11.95;34.52;102321.53;5109435;28;20613;-77
2021/03/28 09:25:57;;;;;;;3.38;1.30;;;;;;;12.04;33.93;102323.66;5111959;28;20532;-76
2021/03/28 09:28:35;;;;;;;3.85;1.50;;;;;;;12.10;33.78;102321.47;5115846;28;20045;-76
2021/03/28 09:31:09;;;;;;;4.63;1.33;;;;;;;12.12;33.94;102319.50;5116104;28;20546;-76
2021/03/28 09:33:44;;;;;;;5.35;1.70;;;;;;;12.19;33.09;102329.03;5087633;28;20043;-76
2021/03/28 09:36:42;;;;;;;5.13;1.50;;;;;;;12.23;32.77;102327.84;5091014;28;20465;-76
2021/03/28 09:39:39;;;;;;;6.57;1.50;;;;;;;12.27;33.39;102332.13;5102214;28;20420;-76
2021/03/28 09:42:46;;;;;;;3.90;1.40;;;;;;;12.28;33.12;102326.53;5116102;28;20093;-76
2021/03/28 09:45:46;;;;;;;4.38;1.40;;;;;;;12.33;32.35;102318.88;5081870;27;20079;-76
2021/03/28 09:49:04;;;;;;;4.90;1.50;;;;;;;12.31;32.23;102312.59;5086878;28;20043;-77
2021/03/28 09:51:46;;;;;;;4.72;1.30;;;;;;;12.41;32.34;102319.22;5112498;27;20036;-76
2021/03/28 09:54:28;;;;;;;6.50;1.70;;;;;;;12.46;32.42;102313.38;5114843;28;20051;-76
2021/03/28 09:57:18;;;;;;;6.53;1.88;;;;;;;12.51;31.76;102296.59;5108921;28;20043;-76
2021/03/28 10:00:19;;;;;;;3.95;1.48;;;;;;;12.56;32.11;102300.75;5113774;28;20046;-76
2021/03/28 10:02:54;;;;;;;3.30;1.30;;;;;;;12.66;32.37;102284.50;5111350;27;20070;-78
2021/03/28 10:05:28;;;;;;;4.90;1.25;;;;;;;12.76;32.44;102291.94;5115666;28;20116;-77
2021/03/28 10:08:06;;;;;;;4.45;1.50;;;;;;;12.83;31.96;102289.66;5115252;28;20040;-77
2021/03/28 10:10:41;;;;;;;3.40;1.30;;;;;;;12.95;31.97;102293.38;5114925;28;20051;-76
2021/03/28 10:13:32;;;;;;;5.68;1.70;;;;;;;13.04;31.15;102290.84;5101478;28;20040;-77
2021/03/28 10:16:08;;;;;;;4.72;1.40;;;;;;;13.13;31.08;102286.53;5076434;28;20055;-77
2021/03/28 10:18:51;;;;;;;3.47;1.42;;;;;;;13.28;30.65;102299.09;5113424;27;20540;-77
2021/03/28 10:21:36;;;;;;;4.65;1.15;;;;;;;13.37;31.05;102281.03;5115193;27;20043;-77
2021/03/28 10:24:32;;;;;;;3.72;1.40;;;;;;;13.45;30.65;102287.72;5113150;28;20040;-76
2021/03/28 10:27:38;;;;;;;2.67;1.05;;;;;;;13.54;30.45;102291.63;5104954;28;20479;-76
2021/03/28 10:30:21;;;;;;;3.45;1.30;;;;;;;13.67;30.57;102300.69;5110996;28;20058;-79
2021/03/28 10:33:05;;;;;;;4.63;1.40;;;;;;;13.76;30.29;102297.25;5109524;28;20118;-77
2021/03/28 10:35:52;;;;;;;6.07;1.58;;;;;;;13.83;29.99;102305.91;5098664;28;20035;-75
2021/03/28 10:38:35;;;;;;;4.32;1.23;;;;;;;13.88;30.01;102304.59;5110586;28;20036;-77
2021/03/28 10:41:16;;;;;;;4.93;1.60;;;;;;;13.93;30.24;102296.84;5111060;28;20071;-77
2021/03/28 10:44:01;;;;;;;5.93;1.95;;;;;;;14.00;29.67;102300.00;5114461;28;20051;-75
2021/03/28 10:46:58;;;;;;;3.47;1.20;;;;;;;14.04;29.19;102308.91;5087534;28;20414;-77
2021/03/28 10:50:06;;;;;;;4.35;1.30;;;;;;;14.07;29.32;102297.66;5110960;28;20036;-76
2021/03/28 10:53:21;;;;;;;6.05;1.70;;;;;;;14.10;28.30;102305.66;5106780;28;20622;-76
2021/03/28 10:56:23;;;;;;;5.10;1.40;;;;;;;14.10;28.52;102297.41;5031436;28;20049;-76
2021/03/28 10:59:27;;;;;;;3.63;1.30;;;;;;;14.09;27.71;102302.03;5113982;28;20047;-76
2021/03/28 11:02:39;;;;;;;3.83;1.10;;;;;;;14.06;27.66;102301.41;5103439;28;20047;-76
2021/03/28 11:05:34;;;;;;;4.70;1.20;;;;;;;14.10;27.08;102294.66;5108228;28;20521;-76
2021/03/28 11:08:43;;;;;;;6.72;1.38;;;;;;;14.10;27.76;102294.66;5114416;28;20035;-76
2021/03/28 11:11:55;;;;;;;6.47;1.60;;;;;;;14.05;27.56;102292.28;5114233;28;20040;-76
2021/03/28 11:14:52;;;;;;;4.53;1.40;;;;;;;14.08;27.53;102282.88;5095529;28;20047;-77
2021/03/28 11:17:58;;;;;;;5.13;1.20;;;;;;;14.03;26.75;102283.25;5113469;28;20048;-76
2021/03/28 11:20:34;;;;;;;5.60;1.63;;;;;;;14.07;27.69;102287.53;5114086;28;20050;-77
2021/03/28 11:23:29;;;;;;;3.63;1.45;;;;;;;14.06;26.67;102284.91;5112881;28;20042;-75
2021/03/28 11:26:25;;;;;;;4.45;1.60;;;;;;;14.10;27.72;102279.00;5101558;28;20048;-76
2021/03/28 11:29:19;;;;;;;4.72;1.38;;;;;;;14.08;27.43;102274.63;5113660;28;20123;-76
2021/03/28 11:32:01;;;;;;;4.10;1.40;;;;;;;14.13;27.32;102288.91;5104337;28;20042;-78
2021/03/28 11:34:34;;;;;;;7.18;1.58;;;;;;;14.14;27.93;102274.16;5110515;28;20050;-76
2021/03/28 11:37:05;;;;;;;4.75;1.40;;;;;;;14.19;28.19;102274.66;5114095;28;20108;-76
2021/03/28 11:39:38;;;;;;;7.32;1.90;;;;;;;14.21;28.11;102279.06;5111859;28;20047;-76
2021/03/28 11:42:28;;;;;;;3.33;1.20;;;;;;;14.18;27.09;102265.53;5073581;28;20117;-76
2021/03/28 11:45:35;;;;;;;7.13;1.75;;;;;;;14.18;27.39;102290.28;5120700;28;20031;-75
2021/03/28 11:48:28;;;;;;;3.67;1.20;;;;;;;14.27;27.86;102283.19;5114169;28;20047;-75
2021/03/28 11:50:59;;;;;;;4.07;1.33;;;;;;;14.31;28.36;102287.47;5099567;28;20043;-75
2021/03/28 11:53:36;;;;;;;5.05;1.40;;;;;;;14.35;27.83;102279.81;5111184;28;20078;-76
2021/03/28 11:56:26;;;;;;;3.22;1.13;;;;;;;14.38;27.71;102287.84;5107171;28;20520;-75
2021/03/28 11:59:00;;;;;;;6.32;1.80;;;;;;;14.39;27.87;102297.84;5111613;28;20059;-76
2021/03/28 12:02:15;;;;;;;4.75;1.60;;;;;;;14.36;27.13;102295.34;5111909;28;20044;-76
2021/03/28 12:04:44;;;;;;;5.03;1.65;;;;;;;14.33;28.30;102285.44;5089923;28;20066;-76
2021/03/28 12:07:27;;;;;;;5.85;1.50;;;;;;;14.40;26.80;102285.84;5101849;28;20039;-76
2021/03/28 12:10:29;;;;;;;4.80;1.50;;;;;;;14.44;27.10;102276.31;5093441;28;20699;-76
2021/03/28 12:13:15;;;;;;;3.88;1.38;;;;;;;14.47;26.94;102278.84;5112861;28;20044;-76
2021/03/28 12:16:04;;;;;;;5.93;1.65;;;;;;;14.48;27.36;102277.84;5113821;28;20050;-76
2021/03/28 12:18:47;;;;;;;5.63;1.88;;;;;;;14.50;26.70;102287.72;5083136;28;20063;-75
2021/03/28 12:21:39;;;;;;;5.07;1.63;;;;;;;14.50;26.83;102282.22;5080643;28;20176;-76
2021/03/28 12:24:13;;;;;;;3.97;1.48;;;;;;;14.50;27.48;102271.19;5077334;28;20454;-77
2021/03/28 12:26:53;;;;;;;4.93;1.25;;;;;;;14.59;26.93;102272.34;5092288;28;20044;-77
2021/03/28 12:29:39;;;;;;;5.70;1.65;;;;;;;14.61;26.57;102271.22;5112361;28;20038;-77
2021/03/28 12:32:50;;;;;;;5.53;1.38;;;;;;;14.64;26.94;102273.72;5107966;28;20391;-76
2021/03/28 12:35:26;;;;;;;3.33;1.15;;;;;;;14.69;27.53;102276.09;5112708;28;20118;-76
2021/03/28 12:37:54;;;;;;;6.18;1.67;;;;;;;14.67;27.78;102273.47;5102884;28;20127;-77
2021/03/28 12:40:31;;;;;;;4.47;1.20;;;;;;;14.76;26.49;102262.69;5099922;28;20043;-76
2021/03/28 12:43:02;;;;;;;3.80;1.20;;;;;;;14.76;26.49;102259.94;5112649;28;20048;-76
2021/03/28 12:45:42;;;;;;;6.85;1.40;;;;;;;14.80;25.99;102267.00;5112778;28;20050;-76
2021/03/28 12:48:32;;;;;;;3.35;1.65;;;;;;;14.80;25.91;102259.63;5112771;28;20063;-76
2021/03/28 12:51:00;;;;;;;4.15;1.30;;;;;;;14.82;26.93;102251.22;5111862;28;20043;-77
2021/03/28 12:53:33;;;;;;;3.63;1.17;;;;;;;14.83;26.50;102251.06;5095285;28;20032;-76
2021/03/28 12:56:19;;;;;;;3.78;1.30;;;;;;;14.83;26.50;102241.94;5111408;28;20031;-76
2021/03/28 12:58:53;;;;;;;;;;;;;;;14.54;26.47;102252.56;5099824;28;20040;-77
2021/03/28 13:01:27;;;;;;;4.05;1.10;;;;;;;14.81;26.23;102250.34;5108607;28;20380;-77
2021/03/28 13:04:07;;;;;;;3.25;1.20;;;;;;;14.85;26.13;102261.97;5101382;28;20589;-76
2021/03/28 13:06:45;;;;;;;3.25;1.10;;;;;;;14.88;26.08;102262.63;5112075;28;20046;-77
2021/03/28 13:09:24;;;;;;;5.10;2.03;;;;;;;14.88;26.14;102250.72;5113686;28;20072;-76
2021/03/28 13:11:57;;;;;;;4.53;1.20;;;;;;;14.88;26.78;102250.72;5094519;28;20043;-76
2021/03/28 13:14:32;;;;;;;3.60;1.17;;;;;;;14.88;25.30;102234.19;5113623;28;20067;-76
2021/03/28 13:17:02;;;;;;;5.72;1.20;;;;;;;14.87;26.40;102240.69;5104638;28;20032;-77
2021/03/28 13:19:33;;;;;;;3.85;1.10;;;;;;;14.90;26.08;102243.22;5113172;28;20089;-76